Time;durP1;ratioP1;P1;durP2;ratioP2;P2;SDS_P1;SDS_P2;PMS_P1;PMS_P2;Temp;Humidity;BMP_temperature;BMP_pressure;BME280_temperature;BME280_humidity;BME280_pressure;Samples;Min_cycle;Max_cycle;Signal;HPM_P1;HPM_P2
2021/11/12 00:03:27;;;;;;;55.08;26.48;;;;;;;-1.08;91.14;98526.39;1706146;82;21026;-78
2021/11/12 00:13:58;;;;;;;44.45;24.07;;;;;;;-1.36;92.57;98517.00;1702710;82;20931;-78
2021/11/12 00:16:27;;;;;;;52.13;26.02;;;;;;;-1.46;92.43;98508.95;1702297;82;21034;-78
2021/11/12 00:18:54;;;;;;;45.58;23.80;;;;;;;-1.48;92.96;98511.94;1720413;82;21413;-78
2021/11/12 00:21:21;;;;;;;44.75;23.25;;;;;;;-1.56;92.39;98506.95;1705393;82;21014;-78
2021/11/12 00:23:47;;;;;;;49.58;25.45;;;;;;;-1.65;93.17;98511.48;1722049;82;21018;-78
2021/11/12 00:26:14;;;;;;;49.80;24.07;;;;;;;-1.64;93.20;98506.73;1711471;82;21105;-78
2021/11/12 00:28:50;;;;;;;39.30;22.07;;;;;;;-1.65;92.98;98504.98;1720863;82;21578;-78
2021/11/12 00:39:10;;;;;;;41.18;22.02;;;;;;;-1.78;92.20;98508.93;1702823;82;21464;-78
2021/11/12 00:44:28;;;;;;;43.28;23.32;;;;;;;-1.98;92.40;98499.29;1721924;82;21281;-77
2021/11/12 00:46:52;;;;;;;44.23;23.70;;;;;;;-1.94;92.29;98502.84;1717037;82;21022;-77
2021/11/12 00:49:19;;;;;;;43.23;23.15;;;;;;;-1.92;92.14;98499.86;1706112;82;21427;-77
2021/11/12 00:51:50;;;;;;;39.63;22.67;;;;;;;-1.94;92.16;98501.14;1712214;82;21507;-77
2021/11/12 00:54:18;;;;;;;44.50;22.87;;;;;;;-1.88;92.14;98500.42;1702822;82;21655;-77
2021/11/12 00:56:48;;;;;;;37.73;21.23;;;;;;;-1.89;92.03;98498.26;1711438;82;20989;-77
2021/11/12 00:59:18;;;;;;;41.42;21.95;;;;;;;-1.95;91.57;98503.69;1715348;82;21018;-77
2021/11/12 01:01:47;;;;;;;41.00;21.68;;;;;;;-1.96;91.43;98501.50;1703229;82;21001;-77
2021/11/12 01:04:18;;;;;;;43.40;23.18;;;;;;;-1.99;91.76;98511.83;1717131;82;21022;-77
2021/11/12 01:06:50;;;;;;;43.10;22.13;;;;;;;-1.98;91.45;98503.19;1711725;82;20987;-77
2021/11/12 01:09:22;;;;;;;37.90;21.40;;;;;;;-2.01;91.35;98509.58;1709356;82;20998;-77
2021/11/12 01:11:51;;;;;;;43.35;22.40;;;;;;;-2.06;91.24;98510.76;1706499;82;21022;-77
2021/11/12 01:14:25;;;;;;;42.05;22.00;;;;;;;-2.03;91.41;98512.13;1712225;82;20999;-77
2021/11/12 01:16:53;;;;;;;38.73;20.95;;;;;;;-2.08;90.91;98502.46;1707055;82;21043;-77
2021/11/12 01:19:20;;;;;;;40.00;21.70;;;;;;;-2.12;90.98;98504.95;1710386;82;21474;-77
2021/11/12 01:21:49;;;;;;;37.53;21.12;;;;;;;-2.15;90.88;98513.95;1714051;82;21026;-77
2021/11/12 01:24:16;;;;;;;39.33;21.73;;;;;;;-2.17;90.79;98516.03;1720564;82;21621;-76
2021/11/12 01:26:43;;;;;;;34.03;20.08;;;;;;;-2.19;90.50;98512.52;1715572;82;21117;-77
2021/11/12 01:29:10;;;;;;;43.30;22.30;;;;;;;-2.21;90.42;98514.20;1711664;82;20982;-77
2021/11/12 01:31:37;;;;;;;44.23;24.30;;;;;;;-2.29;90.58;98518.73;1721205;82;21038;-77
2021/11/12 01:34:08;;;;;;;41.88;21.68;;;;;;;-2.30;90.42;98518.28;1720988;82;21415;-77
2021/11/12 01:36:42;;;;;;;40.85;21.07;;;;;;;-2.33;90.28;98517.31;1688698;82;21040;-77
2021/11/12 01:39:15;;;;;;;42.90;22.30;;;;;;;-2.46;89.36;98518.66;1707180;82;20982;-77
2021/11/12 01:41:47;;;;;;;44.60;21.93;;;;;;;-2.47;90.08;98512.97;1715494;82;21067;-77
2021/11/12 01:44:12;;;;;;;41.63;22.25;;;;;;;-2.51;89.88;98506.81;1711220;82;20972;-77
2021/11/12 01:49:27;;;;;;;45.58;22.77;;;;;;;-2.53;90.44;98508.49;1711905;82;21059;-77
2021/11/12 01:52:09;;;;;;;41.30;23.25;;;;;;;-2.52;90.04;98498.57;1718717;82;20963;-77
2021/11/12 01:59:37;;;;;;;46.37;22.62;;;;;;;-2.63;90.20;98487.84;1706004;81;20974;-77
2021/11/12 02:02:08;;;;;;;46.13;22.30;;;;;;;-2.70;90.44;98489.80;1716933;81;21062;-77
2021/11/12 02:04:37;;;;;;;40.92;21.73;;;;;;;-2.71;90.43;98496.69;1712725;81;21012;-77
2021/11/12 02:07:06;;;;;;;40.38;21.77;;;;;;;-2.71;90.56;98495.39;1718285;81;20989;-77
2021/11/12 02:09:33;;;;;;;42.58;21.75;;;;;;;-2.70;90.44;98493.69;1706869;81;20938;-77
2021/11/12 02:12:09;;;;;;;43.55;22.77;;;;;;;-2.74;90.82;98496.58;1697734;81;20995;-77
2021/11/12 02:14:34;;;;;;;44.83;23.20;;;;;;;-2.76;90.44;98491.77;1715130;81;21016;-77
2021/11/12 02:17:14;;;;;;;38.35;21.05;;;;;;;-2.76;90.61;98490.88;1704836;81;21271;-77
2021/11/12 02:19:50;;;;;;;45.08;22.75;;;;;;;-2.79;90.65;98494.27;1707683;81;20983;-77
2021/11/12 02:22:22;;;;;;;46.92;22.22;;;;;;;-2.84;90.62;98486.75;1715423;81;21082;-77
2021/11/12 02:24:58;;;;;;;44.25;21.65;;;;;;;-2.84;91.04;98487.64;1723816;81;21038;-77
2021/11/12 02:27:22;;;;;;;34.33;19.95;;;;;;;-2.83;90.89;98495.88;1712477;81;21003;-77
2021/11/12 02:29:55;;;;;;;41.40;21.82;;;;;;;-2.82;90.56;98487.27;1704614;81;20978;-77
2021/11/12 02:32:33;;;;;;;43.25;21.75;;;;;;;-2.74;90.83;98487.50;1722984;81;20997;-77
2021/11/12 02:35:02;;;;;;;44.85;22.48;;;;;;;-2.73;91.03;98485.40;1717798;81;20979;-77
2021/11/12 02:37:31;;;;;;;45.12;22.50;;;;;;;-2.70;90.70;98488.07;1714920;81;21041;-77
2021/11/12 02:40:00;;;;;;;40.28;21.30;;;;;;;-2.73;90.60;98487.09;1723385;81;20949;-77
2021/11/12 02:42:28;;;;;;;43.33;22.17;;;;;;;-2.71;90.63;98488.91;1713825;81;20967;-77
2021/11/12 02:44:56;;;;;;;41.55;22.27;;;;;;;-2.69;90.57;98487.66;1723745;81;21029;-77
2021/11/12 02:47:23;;;;;;;35.43;19.23;;;;;;;-2.71;90.60;98482.42;1724318;81;20954;-77
2021/11/12 02:49:52;;;;;;;38.58;20.43;;;;;;;-2.65;90.71;98477.85;1720335;81;21416;-77
2021/11/12 02:52:19;;;;;;;39.05;20.90;;;;;;;-2.65;90.65;98485.20;1718842;81;21051;-77
2021/11/12 02:54:48;;;;;;;41.20;20.32;;;;;;;-2.67;90.28;98485.58;1708822;81;20970;-77
2021/11/12 02:57:17;;;;;;;38.53;20.57;;;;;;;-2.64;90.53;98491.28;1692878;82;21031;-78
2021/11/12 02:59:47;;;;;;;33.67;20.02;;;;;;;-2.67;90.12;98498.95;1691142;82;20986;-78
2021/11/12 03:02:14;;;;;;;32.80;19.17;;;;;;;-2.72;90.10;98491.45;1708908;82;21565;-78
2021/11/12 03:04:41;;;;;;;36.38;19.92;;;;;;;-2.72;90.26;98494.05;1706427;82;21014;-78
2021/11/12 03:07:09;;;;;;;35.20;17.85;;;;;;;-2.74;90.25;98493.98;1708875;82;21062;-78
2021/11/12 03:09:36;;;;;;;34.43;18.77;;;;;;;-2.76;89.68;98494.38;1715870;82;21431;-77
2021/11/12 03:12:06;;;;;;;36.03;18.73;;;;;;;-2.80;90.06;98489.91;1703255;82;21046;-78
2021/11/12 03:14:35;;;;;;;32.58;18.40;;;;;;;-2.81;90.20;98483.86;1714880;82;21387;-78
2021/11/12 03:17:03;;;;;;;36.30;18.77;;;;;;;-2.81;89.80;98481.27;1724231;82;21053;-77
2021/11/12 03:19:31;;;;;;;35.95;19.23;;;;;;;-2.82;89.92;98489.00;1700466;82;20985;-78
2021/11/12 03:22:07;;;;;;;38.50;18.80;;;;;;;-2.90;89.48;98485.27;1699210;82;21027;-78
2021/11/12 03:24:37;;;;;;;40.58;23.95;;;;;;;-2.93;89.72;98483.05;1694710;82;28807;-77
2021/11/12 04:19:20;;;;;;;41.68;21.55;;;;;;;-3.06;90.86;98466.63;1717524;81;21479;-77
2021/11/12 04:21:52;;;;;;;45.80;23.50;;;;;;;-3.05;91.06;98472.27;1717000;81;21042;-77
2021/11/12 05:45:46;;;;;;;;;;;;;;;-2.68;91.07;98500.69;1709388;82;21424;-77
2021/11/12 05:55:45;;;;;;;44.25;21.73;;;;;;;-2.52;91.55;98496.84;1669813;82;21028;-77
2021/11/12 05:58:11;;;;;;;48.02;22.70;;;;;;;-2.48;91.20;98501.73;1705722;82;21002;-77
2021/11/12 06:00:37;;;;;;;47.78;23.35;;;;;;;-2.41;91.38;98497.61;1700302;82;21001;-77
2021/11/12 06:03:04;;;;;;;44.53;23.15;;;;;;;-2.39;91.52;98503.72;1704049;82;21518;-77
2021/11/12 06:05:31;;;;;;;43.10;21.10;;;;;;;-2.42;91.19;98509.70;1714316;82;21101;-77
2021/11/12 06:07:58;;;;;;;49.00;23.00;;;;;;;-2.39;90.95;98502.02;1698883;82;21077;-77
2021/11/12 06:10:24;;;;;;;50.88;21.30;;;;;;;-2.43;90.84;98505.75;1714560;82;21506;-77
2021/11/12 06:12:50;;;;;;;45.75;21.62;;;;;;;-2.47;90.52;98508.67;1700454;82;20994;-77
2021/11/12 06:15:17;;;;;;;46.70;21.75;;;;;;;-2.54;90.32;98507.60;1710201;82;20977;-77
2021/11/12 06:17:46;;;;;;;50.43;23.38;;;;;;;-2.60;90.59;98506.13;1666991;83;20977;-76
2021/11/12 06:20:13;;;;;;;46.80;21.85;;;;;;;-2.60;90.76;98502.23;1712137;82;22352;-76
2021/11/12 06:22:40;;;;;;;57.17;22.45;;;;;;;-2.55;90.83;98510.14;1702268;82;21114;-77
2021/11/12 06:25:07;;;;;;;47.55;23.20;;;;;;;-2.50;91.01;98508.57;1698658;83;21033;-77
2021/11/12 06:27:34;;;;;;;51.48;23.95;;;;;;;-2.44;90.59;98506.59;1701192;82;20991;-77
2021/11/12 06:30:03;;;;;;;49.85;23.62;;;;;;;-2.41;90.78;98510.16;1695990;82;21035;-77
2021/11/12 06:32:29;;;;;;;51.37;22.45;;;;;;;-2.44;90.42;98518.27;1706706;82;20963;-77
2021/11/12 06:34:55;;;;;;;52.23;24.02;;;;;;;-2.38;90.45;98513.26;1707349;82;21028;-77
2021/11/12 06:37:24;;;;;;;47.45;22.05;;;;;;;-2.34;90.70;98509.93;1705940;82;21054;-76
2021/11/12 06:39:51;;;;;;;45.23;22.10;;;;;;;-2.33;90.39;98514.28;1706874;82;20999;-77
2021/11/12 06:42:23;;;;;;;49.95;21.97;;;;;;;-2.30;90.17;98518.68;1716149;82;21021;-77
2021/11/12 06:49:17;;;;;;;48.00;22.10;;;;;;;-2.37;90.21;98510.26;1710044;82;21059;-76
2021/11/12 06:50:13;;;;;;;50.63;24.05;;;;;;;-2.41;90.33;98504.96;1714308;82;21054;-77
2021/11/12 06:52:43;;;;;;;56.85;24.92;;;;;;;-2.41;90.66;98504.96;1703059;82;21071;-77
2021/11/12 06:55:13;;;;;;;52.03;23.45;;;;;;;-2.40;90.52;98503.27;1705973;82;21046;-77
2021/11/12 06:57:42;;;;;;;58.83;27.20;;;;;;;-2.43;90.43;98497.96;1699698;82;21034;-76
2021/11/12 07:00:15;;;;;;;46.30;23.80;;;;;;;-2.42;90.65;98507.10;1710061;82;21014;-77
2021/11/12 07:02:42;;;;;;;51.15;22.07;;;;;;;-2.42;90.71;98501.02;1693211;82;21035;-77
2021/11/12 07:05:12;;;;;;;50.50;24.52;;;;;;;-2.36;90.85;98502.52;1704421;82;21007;-77
2021/11/12 07:07:41;;;;;;;55.08;25.85;;;;;;;-2.34;90.71;98503.84;1699593;82;21026;-77
2021/11/12 07:10:10;;;;;;;55.60;25.45;;;;;;;-2.32;90.38;98496.56;1707078;82;21401;-77
2021/11/12 07:12:37;;;;;;;53.92;25.40;;;;;;;-2.32;90.71;98500.45;1694349;82;21502;-77
2021/11/12 07:15:06;;;;;;;55.73;25.10;;;;;;;-2.21;90.41;98498.63;1706134;82;20994;-77
2021/11/12 07:17:33;;;;;;;52.58;25.32;;;;;;;-2.15;90.60;98493.61;1716716;82;20991;-77
2021/11/12 07:20:01;;;;;;;57.50;26.17;;;;;;;-2.11;90.26;98496.77;1710093;82;21337;-77
2021/11/12 07:22:27;;;;;;;56.63;26.60;;;;;;;-2.05;90.48;98495.63;1709624;82;21025;-77
2021/11/12 07:24:54;;;;;;;59.85;25.62;;;;;;;-2.03;90.44;98492.64;1700676;82;21408;-76
2021/11/12 07:27:20;;;;;;;60.55;27.60;;;;;;;-1.94;90.45;98483.36;1706916;82;21062;-77
2021/11/12 07:29:49;;;;;;;62.27;26.25;;;;;;;-1.85;90.48;98483.63;1706362;82;21056;-77
2021/11/12 07:32:17;;;;;;;61.40;27.52;;;;;;;-1.75;90.32;98488.64;1703906;82;21022;-77
2021/11/12 07:34:47;;;;;;;66.30;29.80;;;;;;;-1.66;90.04;98481.55;1710643;82;21066;-77
2021/11/12 07:37:13;;;;;;;55.83;26.33;;;;;;;-1.63;89.88;98485.09;1697024;82;21090;-77
2021/11/12 07:45:04;;;;;;;64.15;29.27;;;;;;;-1.43;89.24;98484.75;1705162;82;20951;-77
2021/11/12 07:47:28;;;;;;;64.85;29.20;;;;;;;-1.37;89.37;98478.84;1708983;82;21004;-78
2021/11/12 07:50:00;;;;;;;70.37;31.02;;;;;;;-1.29;89.90;98472.09;1674418;83;21076;-77
2021/11/12 07:52:31;;;;;;;57.45;28.25;;;;;;;-1.15;89.76;98474.17;1701621;82;20967;-77
2021/11/12 07:55:00;;;;;;;68.60;29.18;;;;;;;-1.03;89.67;98465.39;1709569;82;21418;-78
2021/11/12 07:57:27;;;;;;;71.37;32.15;;;;;;;-0.97;89.11;98474.64;1706943;82;21033;-77
2021/11/12 07:59:55;;;;;;;75.05;32.63;;;;;;;-0.95;88.75;98465.13;1707613;82;20986;-80
2021/11/12 08:02:25;;;;;;;85.07;35.80;;;;;;;-0.84;89.22;98463.20;1710698;82;21484;-80
2021/11/12 08:04:59;;;;;;;79.30;34.45;;;;;;;-0.73;89.00;98462.16;1712005;82;20990;-80
2021/11/12 08:07:23;;;;;;;75.45;33.20;;;;;;;-0.67;88.95;98460.59;1711598;82;21025;-80
2021/11/12 08:09:56;;;;;;;78.97;35.03;;;;;;;-0.54;89.01;98462.19;1701206;82;21029;-81
2021/11/12 08:12:35;;;;;;;71.12;33.25;;;;;;;-0.44;88.87;98469.35;1714570;83;21028;-78
2021/11/12 08:15:15;;;;;;;75.05;33.67;;;;;;;-0.38;88.67;98466.42;1718862;83;21086;-77
2021/11/12 08:17:35;;;;;;;69.17;31.95;;;;;;;-0.30;88.56;98468.75;1709946;82;20954;-81
2021/11/12 08:20:05;;;;;;;69.05;32.60;;;;;;;-0.25;87.93;98472.77;1684054;83;21636;-78
2021/11/12 08:23:18;;;;;;;66.95;30.97;;;;;;;-0.24;87.56;98462.80;1711557;83;21120;-78
2021/11/12 08:27:52;;;;;;;71.40;30.92;;;;;;;-0.11;87.82;98464.83;1712049;84;21104;-79
2021/11/12 08:39:13;;;;;;;66.02;31.07;;;;;;;-0.04;86.47;98451.06;1713118;83;21009;-76
2021/11/12 08:41:23;;;;;;;62.43;29.35;;;;;;;-0.11;86.47;98448.30;1700880;84;20973;-78
2021/11/12 08:43:50;;;;;;;55.95;26.95;;;;;;;-0.10;86.98;98447.04;1712922;83;21464;-78
2021/11/12 08:46:28;;;;;;;59.80;29.25;;;;;;;-0.10;86.62;98443.55;1712678;83;21012;-77
2021/11/12 08:49:11;;;;;;;58.13;27.77;;;;;;;-0.17;86.68;98433.00;1712663;83;21024;-77
2021/11/12 08:51:37;;;;;;;59.58;28.87;;;;;;;-0.21;86.69;98436.83;1712538;83;21418;-77
2021/11/12 08:54:06;;;;;;;70.00;31.00;;;;;;;-0.23;86.81;98442.41;1718762;83;21021;-78
2021/11/12 08:56:32;;;;;;;63.85;28.52;;;;;;;-0.18;87.23;98435.57;1716949;82;21059;-77
2021/11/12 08:58:59;;;;;;;56.95;28.17;;;;;;;-0.16;86.67;98433.45;1725685;83;20980;-77
2021/11/12 09:01:26;;;;;;;54.48;27.27;;;;;;;-0.10;86.13;98437.92;1726088;83;21429;-78
2021/11/12 09:03:54;;;;;;;50.67;23.67;;;;;;;-0.07;86.88;98423.66;1726155;83;21557;-77
2021/11/12 09:06:25;;;;;;;42.48;23.20;;;;;;;-0.03;86.74;98425.90;1700170;83;21057;-77
2021/11/12 09:08:53;;;;;;;53.30;25.37;;;;;;;0.00;86.34;98424.67;1731189;82;21419;-77
2021/11/12 09:11:20;;;;;;;42.38;21.42;;;;;;;0.03;86.74;98427.77;1731764;83;21612;-77
2021/11/12 09:14:00;;;;;;;39.33;21.85;;;;;;;0.08;85.37;98432.19;1731842;83;21001;-77
2021/11/12 09:16:30;;;;;;;43.83;21.57;;;;;;;0.04;85.50;98431.67;1730051;82;21410;-77
2021/11/12 09:18:50;;;;;;;39.75;21.90;;;;;;;0.08;85.81;98436.55;1730246;82;21024;-78
2021/11/12 09:21:18;;;;;;;40.05;21.68;;;;;;;0.06;84.65;98437.81;1731711;82;20993;-76
2021/11/12 09:23:45;;;;;;;41.65;22.98;;;;;;;0.06;85.38;98433.01;1731951;82;21028;-77
2021/11/12 09:26:13;;;;;;;42.88;22.45;;;;;;;0.07;84.91;98423.92;1731951;82;21084;-77
2021/11/12 09:28:39;;;;;;;41.80;22.48;;;;;;;0.07;82.87;98416.11;1731822;82;21002;-76
2021/11/12 09:31:10;;;;;;;36.60;21.37;;;;;;;0.03;84.07;98414.28;1731592;83;21465;-76
2021/11/12 09:33:38;;;;;;;41.65;22.00;;;;;;;0.03;84.66;98417.34;1731822;83;21394;-76
2021/11/12 09:36:09;;;;;;;38.92;22.65;;;;;;;0.09;84.69;98420.05;1731666;83;20993;-76
2021/11/12 09:38:39;;;;;;;38.35;20.45;;;;;;;0.13;84.27;98414.91;1731432;83;21040;-77
2021/11/12 09:41:08;;;;;;;37.95;21.95;;;;;;;0.11;83.95;98419.64;1731685;82;21001;-76
2021/11/12 09:43:38;;;;;;;36.20;21.00;;;;;;;0.17;84.68;98416.28;1729395;82;21023;-76
2021/11/12 09:46:06;;;;;;;39.00;21.95;;;;;;;0.26;84.72;98400.82;1726320;83;21075;-78
2021/11/12 09:48:33;;;;;;;37.00;20.92;;;;;;;0.27;82.77;98399.96;1726250;83;21016;-78
2021/11/12 09:51:00;;;;;;;39.05;19.82;;;;;;;0.19;82.29;98395.02;1726241;83;21016;-78
2021/11/12 09:53:27;;;;;;;36.40;20.12;;;;;;;0.17;83.46;98396.73;1731722;83;20989;-77
2021/11/12 09:55:54;;;;;;;33.65;19.50;;;;;;;0.23;82.88;98389.91;1731664;82;21378;-76
2021/11/12 09:58:22;;;;;;;32.67;19.02;;;;;;;0.30;83.87;98387.41;1720206;82;21084;-77
2021/11/12 10:00:56;;;;;;;28.75;17.75;;;;;;;0.38;82.04;98380.61;1718874;83;21004;-78
2021/11/12 10:03:18;;;;;;;33.50;18.02;;;;;;;0.35;82.25;98374.92;1712719;83;21474;-77
2021/11/12 10:05:49;;;;;;;34.30;18.60;;;;;;;0.41;82.74;98374.12;1713323;84;21048;-77
2021/11/12 10:08:29;;;;;;;33.70;18.52;;;;;;;0.44;82.76;98363.76;1712996;84;21063;-77
2021/11/12 10:11:06;;;;;;;38.05;21.62;;;;;;;0.47;82.44;98360.33;1713020;84;21028;-77
2021/11/12 10:13:40;;;;;;;37.33;20.92;;;;;;;0.54;82.85;98360.86;1713939;83;21450;-78
2021/11/12 10:19:03;;;;;;;40.15;20.95;;;;;;;0.77;81.47;98348.21;1719236;83;21053;-77
2021/11/12 10:21:43;;;;;;;36.17;18.87;;;;;;;0.91;82.37;98339.27;1719434;82;21037;-76
2021/11/12 10:24:26;;;;;;;33.90;19.27;;;;;;;1.04;81.18;98326.42;1719127;82;21081;-77
2021/11/12 10:27:01;;;;;;;33.13;19.40;;;;;;;1.16;81.23;98329.63;1714443;83;21440;-77
2021/11/12 10:29:43;;;;;;;31.80;17.45;;;;;;;1.55;82.79;98322.27;1717393;83;21447;-77
2021/11/12 10:32:09;;;;;;;36.63;19.50;;;;;;;2.68;80.34;98318.55;1718788;83;21064;-78
2021/11/12 10:34:39;;;;;;;34.00;20.12;;;;;;;3.92;73.84;98310.84;1718743;83;21067;-78
2021/11/12 10:37:21;;;;;;;35.20;21.23;;;;;;;5.12;72.95;98301.19;1717899;82;21013;-79
2021/11/12 10:39:52;;;;;;;38.20;22.50;;;;;;;6.10;66.14;98303.01;1713070;83;21064;-79
2021/11/12 10:42:27;;;;;;;36.80;21.12;;;;;;;6.97;63.48;98288.66;1712911;84;21021;-78
2021/11/12 10:45:04;;;;;;;32.75;21.70;;;;;;;7.73;62.41;98284.72;1712854;83;21424;-79
2021/11/12 10:47:32;;;;;;;36.58;22.75;;;;;;;8.31;57.39;98278.17;1712922;84;21096;-77
2021/11/12 10:50:12;;;;;;;32.93;21.45;;;;;;;8.88;55.47;98273.70;1712465;84;20953;-77
2021/11/12 10:52:43;;;;;;;32.80;22.87;;;;;;;9.33;53.45;98262.72;1711946;83;21048;-77
2021/11/12 10:55:20;;;;;;;35.43;24.27;;;;;;;9.95;52.62;98256.13;1712443;84;21060;-77
2021/11/12 10:57:59;;;;;;;37.13;23.87;;;;;;;10.60;49.87;98252.41;1713252;83;21021;-78
2021/11/12 11:00:37;;;;;;;34.08;22.70;;;;;;;11.07;51.33;98248.08;1717810;83;21463;-78
2021/11/12 11:03:13;;;;;;;32.08;22.20;;;;;;;11.54;48.87;98245.42;1712523;84;21008;-79
2021/11/12 11:05:47;;;;;;;33.53;23.92;;;;;;;12.27;45.41;98247.23;1712472;84;21082;-78
2021/11/12 11:08:26;;;;;;;32.85;22.17;;;;;;;12.49;45.49;98233.22;1715010;83;21454;-79
2021/11/12 11:11:06;;;;;;;39.13;22.62;;;;;;;12.52;43.68;98234.45;1718638;82;22045;-79
2021/11/12 11:13:37;;;;;;;32.03;22.13;;;;;;;13.36;47.54;98229.78;1718923;81;21041;-80
2021/11/12 11:16:21;;;;;;;28.65;21.30;;;;;;;13.17;41.05;98223.80;1718645;83;21442;-80
2021/11/12 11:18:46;;;;;;;31.52;22.35;;;;;;;13.51;42.64;98230.56;1716289;83;21020;-78
2021/11/12 11:23:51;;;;;;;29.37;21.02;;;;;;;14.76;42.27;98221.62;1706411;82;21537;-79
2021/11/12 11:26:22;;;;;;;28.20;20.17;;;;;;;15.31;43.06;98223.66;1684499;85;21005;-78
2021/11/12 11:28:53;;;;;;;26.30;20.08;;;;;;;15.39;39.58;98230.45;1696123;84;20988;-79
2021/11/12 11:31:21;;;;;;;26.52;19.35;;;;;;;15.11;39.25;98221.88;1708181;84;21067;-79
2021/11/12 11:33:51;;;;;;;26.55;20.57;;;;;;;15.15;38.58;98223.94;1718306;83;21019;-79
2021/11/12 11:36:25;;;;;;;28.23;19.75;;;;;;;14.84;38.75;98221.30;1713817;82;21004;-79
2021/11/12 11:38:56;;;;;;;;;;;;;;;14.38;38.00;98224.95;1706438;83;20994;-79
2021/11/12 11:41:26;;;;;;;28.20;20.37;;;;;;;14.18;39.71;98226.64;1702905;83;20117;-78
2021/11/12 11:43:57;;;;;;;25.92;19.60;;;;;;;14.13;38.60;98232.63;1703070;83;21526;-77
2021/11/12 11:46:27;;;;;;;26.75;21.52;;;;;;;14.16;40.14;98226.30;1704001;83;21000;-77
2021/11/12 11:48:59;;;;;;;30.68;22.00;;;;;;;14.35;40.96;98217.95;1702077;83;21122;-76
2021/11/12 11:51:37;;;;;;;32.48;22.42;;;;;;;14.16;38.78;98220.49;1703908;83;20992;-77
2021/11/12 11:54:11;;;;;;;30.43;22.15;;;;;;;13.77;41.30;98216.70;1703666;83;21648;-77
2021/11/12 11:56:42;;;;;;;30.20;22.63;;;;;;;12.93;41.93;98218.44;1699618;83;21029;-77
2021/11/12 11:59:36;;;;;;;33.60;22.35;;;;;;;11.87;44.31;98214.79;1713921;83;20973;-77
2021/11/12 12:02:06;;;;;;;31.68;21.57;;;;;;;11.04;46.37;98216.80;1712268;82;21017;-77
2021/11/12 12:04:43;;;;;;;31.40;20.10;;;;;;;9.69;48.83;98212.59;1700917;83;20969;-77
2021/11/12 12:07:20;;;;;;;28.10;19.30;;;;;;;8.74;50.83;98213.19;1732057;82;21068;-77
2021/11/12 12:10:17;;;;;;;28.10;18.00;;;;;;;7.93;52.97;98211.85;1728930;83;21056;-77
2021/11/12 12:12:49;;;;;;;25.50;17.92;;;;;;;7.22;55.37;98215.91;1731986;82;20996;-76
2021/11/12 12:15:24;;;;;;;23.22;16.35;;;;;;;6.51;58.60;98216.70;1715877;82;21034;-75
2021/11/12 12:18:13;;;;;;;25.48;17.73;;;;;;;5.93;60.05;98221.95;1701365;84;20990;-75
2021/11/12 12:20:58;;;;;;;26.05;16.52;;;;;;;5.59;61.30;98222.59;1701148;84;21050;-76
2021/11/12 13:26:06;;;;;;;35.95;20.60;;;;;;;3.02;75.70;98184.35;1725870;83;21442;-77
2021/11/12 13:28:47;;;;;;;38.78;20.35;;;;;;;3.03;76.79;98182.17;1731617;83;20972;-77
2021/11/12 13:31:22;;;;;;;38.55;22.20;;;;;;;3.03;76.76;98179.55;1731755;82;21461;-77
2021/11/12 13:33:55;;;;;;;35.03;20.15;;;;;;;3.02;77.19;98194.41;1731013;83;21381;-75
2021/11/12 13:36:30;;;;;;;34.75;21.42;;;;;;;2.97;78.84;98180.84;1732085;83;21422;-77
2021/11/12 13:39:07;;;;;;;36.90;20.50;;;;;;;2.82;79.37;98189.07;1726938;82;20973;-76
2021/11/12 13:41:50;;;;;;;39.73;22.15;;;;;;;2.75;77.63;98182.92;1725591;83;21477;-75
2021/11/12 13:44:21;;;;;;;39.78;22.10;;;;;;;2.75;77.75;98173.77;1725545;83;21047;-75
2021/11/12 13:46:53;;;;;;;39.38;21.23;;;;;;;2.69;79.47;98174.20;1722475;83;21052;-75
2021/11/12 13:49:32;;;;;;;44.30;20.97;;;;;;;2.63;79.53;98180.27;1731299;83;20985;-75
2021/11/12 13:52:13;;;;;;;44.88;23.02;;;;;;;2.61;78.26;98186.80;1727423;83;21016;-76
2021/11/12 13:54:45;;;;;;;42.78;23.10;;;;;;;2.60;77.89;98187.66;1731820;82;21344;-76
2021/11/12 13:57:16;;;;;;;40.08;20.92;;;;;;;2.52;81.46;98192.42;1731590;81;20997;-75
2021/11/12 13:59:59;;;;;;;43.00;23.05;;;;;;;2.47;79.57;98187.14;1726427;83;21088;-76
2021/11/12 14:02:29;;;;;;;41.98;22.10;;;;;;;2.51;79.28;98195.45;1726661;83;21513;-77
2021/11/12 14:05:13;;;;;;;46.68;24.37;;;;;;;2.54;80.87;98190.67;1698626;83;21068;-76
2021/11/12 14:07:44;;;;;;;42.83;23.30;;;;;;;2.57;79.63;98195.94;1727882;83;20963;-77
2021/11/12 14:10:15;;;;;;;42.98;22.02;;;;;;;2.55;79.22;98191.11;1731900;83;21026;-77
2021/11/12 14:12:55;;;;;;;38.92;21.57;;;;;;;2.54;82.06;98191.98;1732165;83;21022;-77
2021/11/12 14:15:28;;;;;;;43.60;24.05;;;;;;;2.43;82.73;98188.88;1731291;83;21054;-76
2021/11/12 14:29:13;;;;;;;48.68;25.68;;;;;;;2.50;81.40;98196.33;1727568;83;20995;-76
2021/11/12 14:32:11;;;;;;;54.83;25.90;;;;;;;2.46;81.43;98192.80;1726047;83;21044;-78
2021/11/12 14:34:55;;;;;;;56.80;27.40;;;;;;;2.42;81.23;98190.16;1724040;83;21080;-77
2021/11/12 14:37:26;;;;;;;58.75;28.17;;;;;;;2.36;81.11;98184.03;1727225;83;20993;-78
2021/11/12 14:40:10;;;;;;;;;;;;;;;2.31;81.16;98194.89;1733618;82;21005;-78
2021/11/12 14:45:28;;;;;;;61.42;29.02;;;;;;;2.02;85.38;98197.28;1731735;82;21063;-76
2021/11/12 14:50:39;;;;;;;58.08;28.60;;;;;;;1.94;82.20;98203.33;1726278;83;21016;-75
2021/11/12 14:53:24;;;;;;;55.38;27.20;;;;;;;1.92;83.44;98201.57;1726137;82;21001;-77
2021/11/12 14:56:04;;;;;;;70.72;35.52;;;;;;;1.91;82.39;98206.36;1726353;83;21000;-76
2021/11/12 14:58:25;;;;;;;59.45;28.52;;;;;;;1.84;83.78;98204.97;1727898;81;20989;-76
2021/11/12 15:00:53;;;;;;;66.17;28.87;;;;;;;1.81;82.98;98204.08;1732012;82;21021;-78
2021/11/12 15:03:21;;;;;;;60.65;27.27;;;;;;;1.79;82.26;98207.98;1715408;83;21013;-76
2021/11/12 15:05:48;;;;;;;54.77;26.48;;;;;;;1.75;82.24;98201.42;1731682;83;21430;-74
2021/11/12 15:08:21;;;;;;;54.33;26.62;;;;;;;1.76;82.15;98204.05;1729674;82;21014;-75
2021/11/12 15:10:46;;;;;;;55.33;24.15;;;;;;;1.76;82.92;98213.20;1725676;83;21409;-76
2021/11/12 15:13:14;;;;;;;52.73;24.87;;;;;;;1.75;83.56;98214.48;1725504;83;21008;-77
2021/11/12 15:15:41;;;;;;;50.83;25.75;;;;;;;1.77;83.05;98219.28;1725791;83;21063;-78
2021/11/12 15:18:08;;;;;;;57.43;28.45;;;;;;;1.76;83.15;98217.53;1731718;83;21031;-77
2021/11/12 15:20:36;;;;;;;48.00;24.80;;;;;;;1.78;83.88;98218.00;1731402;82;21073;-77
2021/11/12 15:23:25;;;;;;;55.67;28.42;;;;;;;1.81;84.06;98212.81;1731643;83;21023;-76
2021/11/12 15:28:48;;;;;;;54.05;26.82;;;;;;;1.70;84.87;98207.89;1727786;83;20967;-76
2021/11/12 15:31:21;;;;;;;59.18;28.02;;;;;;;1.66;83.30;98208.30;1722529;83;21107;-77
2021/11/12 15:33:49;;;;;;;60.38;26.93;;;;;;;1.65;83.25;98212.20;1725215;83;21044;-75
2021/11/12 15:36:15;;;;;;;59.30;27.37;;;;;;;1.61;83.36;98219.14;1726950;83;21021;-76
2021/11/12 15:39:18;;;;;;;53.48;26.73;;;;;;;1.61;83.80;98202.61;1731856;82;21394;-76
2021/11/12 15:43:58;;;;;;;56.25;26.27;;;;;;;1.53;86.70;98223.43;1731878;83;21027;-78
2021/11/12 15:46:26;;;;;;;57.00;28.23;;;;;;;1.51;85.51;98225.13;1730063;81;21056;-76
2021/11/12 15:48:54;;;;;;;71.87;33.15;;;;;;;1.52;85.35;98225.16;1726594;83;21076;-77
2021/11/12 15:51:42;;;;;;;62.60;29.60;;;;;;;1.55;85.77;98229.11;1726452;83;21056;-77
2021/11/12 16:02:29;;;;;;;60.60;27.95;;;;;;;1.56;86.30;98226.94;1718898;82;20364;-76
2021/11/12 16:07:32;;;;;;;62.62;28.87;;;;;;;1.61;85.80;98236.57;1715365;83;21033;-76
2021/11/12 16:23:28;;;;;;;72.65;30.10;;;;;;;1.50;87.97;98236.45;1718767;83;22130;-77
2021/11/12 16:25:38;;;;;;;62.67;29.42;;;;;;;1.40;90.50;98247.20;1716850;82;20974;-76
2021/11/12 16:28:06;;;;;;;67.37;29.42;;;;;;;1.33;88.77;98241.06;1717820;82;20993;-76
2021/11/12 16:30:36;;;;;;;68.17;28.57;;;;;;;1.35;87.42;98242.36;1718614;83;21060;-78
2021/11/12 16:33:06;;;;;;;63.28;28.55;;;;;;;1.29;90.12;98252.33;1717894;83;21076;-76
2021/11/12 16:35:36;;;;;;;67.30;27.70;;;;;;;1.18;90.44;98249.58;1718469;83;20978;-77
2021/11/12 16:38:11;;;;;;;67.62;29.95;;;;;;;1.15;88.72;98244.30;1719023;83;21443;-78
2021/11/12 16:40:40;;;;;;;58.63;28.83;;;;;;;1.10;88.48;98245.57;1718675;83;20984;-76
2021/11/12 16:43:12;;;;;;;51.20;25.70;;;;;;;1.09;88.89;98241.63;1716240;83;20982;-75